createdAt,value
2023-04-01T00:00:26.087Z,9.10
2023-04-01T00:01:26.157Z,9.06
2023-04-01T00:02:26.324Z,9.01
2023-04-01T00:03:26.397Z,9.02
2023-04-01T00:04:26.306Z,8.91
2023-04-01T00:05:26.315Z,8.88
2023-04-01T00:06:26.411Z,8.80
2023-04-01T00:07:26.479Z,8.75
2023-04-01T00:08:26.510Z,8.80
2023-04-01T00:09:26.522Z,8.84
2023-04-01T00:10:26.523Z,8.86
2023-04-01T00:11:26.540Z,8.85
2023-04-01T00:12:26.576Z,8.87
2023-04-01T00:13:26.550Z,8.89
2023-04-01T00:14:26.606Z,8.93
2023-04-01T00:15:26.573Z,8.97
2023-04-01T00:16:26.643Z,8.99
2023-04-01T00:17:26.589Z,8.95
2023-04-01T00:18:26.574Z,9.00
2023-04-01T00:19:26.590Z,8.96
2023-04-01T00:20:26.558Z,9.00
2023-04-01T00:21:26.576Z,9.06
2023-04-01T00:22:26.554Z,9.11
2023-04-01T00:23:26.544Z,9.14
2023-04-01T00:24:26.576Z,9.19
2023-04-01T00:25:26.534Z,9.22
2023-04-01T00:26:26.527Z,9.24
2023-04-01T00:27:26.528Z,9.24
2023-04-01T00:28:26.568Z,9.22
2023-04-01T00:29:26.601Z,9.23
2023-04-01T00:30:26.499Z,9.22
2023-04-01T00:31:26.517Z,9.23
2023-04-01T00:32:26.515Z,9.26
2023-04-01T00:33:26.473Z,9.28
2023-04-01T00:34:26.461Z,9.30
2023-04-01T00:35:26.464Z,9.32
2023-04-01T00:36:26.501Z,9.31
2023-04-01T00:37:26.533Z,9.31
2023-04-01T00:38:26.558Z,9.28
2023-04-01T00:39:26.638Z,9.29
2023-04-01T00:40:26.638Z,9.31
2023-04-01T00:41:26.709Z,9.34
2023-04-01T00:42:26.723Z,9.36
2023-04-01T00:43:26.744Z,9.38
2023-04-01T00:44:26.821Z,9.32
2023-04-01T00:45:26.845Z,9.19
2023-04-01T00:46:26.900Z,9.00
2023-04-01T00:47:26.909Z,8.97
2023-04-01T00:48:26.896Z,8.95
2023-04-01T00:49:26.939Z,8.94
2023-04-01T00:50:26.951Z,8.98
2023-04-01T00:51:27.040Z,9.03
2023-04-01T00:52:27.112Z,9.03
2023-04-01T00:53:27.137Z,9.00
2023-04-01T00:54:27.234Z,8.98
2023-04-01T00:55:27.246Z,9.00
2023-04-01T00:56:27.297Z,8.99
2023-04-01T00:57:27.449Z,8.98
2023-04-01T00:58:27.429Z,8.88
2023-04-01T00:59:27.516Z,8.86
2023-04-01T01:00:27.572Z,8.71
2023-04-01T01:01:27.630Z,8.64
2023-04-01T01:02:27.690Z,8.69
2023-04-01T01:03:27.805Z,8.74
2023-04-01T01:04:27.790Z,8.80
2023-04-01T01:05:28.039Z,8.82
2023-04-01T01:06:27.811Z,8.86
2023-04-01T01:07:27.854Z,8.88
2023-04-01T01:08:27.913Z,8.92
2023-04-01T01:09:27.994Z,8.95
2023-04-01T01:10:28.012Z,8.97
2023-04-01T01:11:28.098Z,8.98
2023-04-01T01:12:28.143Z,8.96
2023-04-01T01:13:28.199Z,8.95
2023-04-01T01:14:28.317Z,8.95
2023-04-01T01:15:28.333Z,8.94
2023-04-01T01:16:28.493Z,8.94
2023-04-01T01:17:28.475Z,8.92
2023-04-01T01:18:28.517Z,8.74
2023-04-01T01:19:28.620Z,8.67
2023-04-01T01:20:28.570Z,8.65
2023-04-01T01:21:28.587Z,8.66
2023-04-01T01:22:28.618Z,8.59
2023-04-01T01:23:28.663Z,8.46
2023-04-01T01:24:28.782Z,8.35
2023-04-01T01:25:28.829Z,8.31
2023-04-01T01:26:28.918Z,8.34
2023-04-01T01:27:28.973Z,8.38
2023-04-01T01:28:29.046Z,8.44
2023-04-01T01:29:29.148Z,8.47
2023-04-01T01:30:29.178Z,8.50
2023-04-01T01:31:29.295Z,8.51
2023-04-01T01:32:29.398Z,8.54
2023-04-01T01:33:29.455Z,8.56
2023-04-01T01:34:29.557Z,8.53
2023-04-01T01:35:29.563Z,8.53
2023-04-01T01:36:29.694Z,8.55
2023-04-01T01:37:29.660Z,8.54
2023-04-01T01:38:29.740Z,8.53
2023-04-01T01:39:29.783Z,8.47
2023-04-01T01:40:29.846Z,8.43
2023-04-01T01:41:29.921Z,8.42
2023-04-01T01:42:29.976Z,8.46
2023-04-01T01:43:30.040Z,8.46
2023-04-01T01:44:30.139Z,8.35
2023-04-01T01:45:30.450Z,8.33
2023-04-01T01:46:30.345Z,8.35
2023-04-01T01:47:30.327Z,8.38
2023-04-01T01:48:30.333Z,8.32
2023-04-01T01:49:30.401Z,8.18
2023-04-01T01:50:30.443Z,8.15
2023-04-01T01:51:30.489Z,8.17
2023-04-01T01:52:30.561Z,8.15
2023-04-01T01:53:30.627Z,8.02
2023-04-01T01:54:30.741Z,7.98
2023-04-01T01:55:31.160Z,7.99
2023-04-01T01:56:30.912Z,8.04
2023-04-01T01:57:31.105Z,7.94
2023-04-01T01:58:31.044Z,7.88
2023-04-01T01:59:31.140Z,7.82
2023-04-01T02:00:31.206Z,7.83
2023-04-01T02:01:31.244Z,7.80
2023-04-01T02:02:31.318Z,7.82
2023-04-01T02:03:31.321Z,7.87
2023-04-01T02:04:31.456Z,7.88
2023-04-01T02:05:31.783Z,7.77
2023-04-01T02:06:31.536Z,7.64
2023-04-01T02:07:31.546Z,7.58
2023-04-01T02:08:31.557Z,7.66
2023-04-01T02:09:31.601Z,7.75
2023-04-01T02:10:31.593Z,7.83
2023-04-01T02:11:31.639Z,7.92
2023-04-01T02:12:31.631Z,8.01
2023-04-01T02:13:31.655Z,8.04
2023-04-01T02:14:31.740Z,8.05
2023-04-01T02:15:32.086Z,8.10
2023-04-01T02:16:31.813Z,8.14
2023-04-01T02:17:31.800Z,8.14
2023-04-01T02:18:31.775Z,8.16
2023-04-01T02:19:31.853Z,8.12
2023-04-01T02:20:31.937Z,8.01
2023-04-01T02:21:31.954Z,7.92
2023-04-01T02:22:31.999Z,7.98
2023-04-01T02:23:32.090Z,8.00
2023-04-01T02:24:32.232Z,8.02
2023-04-01T02:25:32.480Z,8.08
2023-04-01T02:26:32.338Z,8.15
2023-04-01T02:27:32.350Z,8.20
2023-04-01T02:28:32.388Z,8.23
2023-04-01T02:29:32.403Z,8.25
2023-04-01T02:30:32.444Z,8.22
2023-04-01T02:31:32.485Z,8.09
2023-04-01T02:32:32.567Z,7.99
2023-04-01T02:33:32.592Z,7.91
2023-04-01T02:34:32.721Z,7.89
2023-04-01T02:35:32.989Z,7.94
2023-04-01T02:36:32.850Z,8.03
2023-04-01T02:37:34.182Z,8.14
2023-04-01T02:38:32.896Z,8.20
2023-04-01T02:39:32.917Z,8.25
2023-04-01T02:40:32.928Z,8.21
2023-04-01T02:41:32.919Z,8.20
2023-04-01T02:42:32.950Z,8.18
2023-04-01T02:43:32.950Z,8.09
2023-04-01T02:44:33.018Z,8.07
2023-04-01T02:45:33.185Z,8.02
2023-04-01T02:46:33.102Z,8.04
2023-04-01T02:47:33.145Z,8.07
2023-04-01T02:48:33.097Z,8.09
2023-04-01T02:49:33.121Z,8.11
2023-04-01T02:50:33.121Z,8.13
2023-04-01T02:51:33.172Z,8.20
2023-04-01T02:52:33.177Z,8.24
2023-04-01T02:53:33.157Z,8.28
2023-04-01T02:54:33.186Z,8.31
2023-04-01T02:55:33.468Z,8.35
2023-04-01T02:56:33.215Z,8.37
2023-04-01T02:57:33.282Z,8.39
2023-04-01T02:58:33.213Z,8.43
2023-04-01T02:59:33.220Z,8.47
2023-04-01T03:00:33.251Z,8.51
2023-04-01T03:01:33.398Z,8.51
2023-04-01T03:02:33.319Z,8.47
2023-04-01T03:03:33.385Z,8.42
2023-04-01T03:04:33.251Z,8.42
2023-04-01T03:05:33.467Z,8.41
2023-04-01T03:06:33.281Z,8.40
2023-04-01T03:07:33.338Z,8.32
2023-04-01T03:08:33.362Z,8.20
2023-04-01T03:09:33.357Z,8.18
2023-04-01T03:10:33.388Z,8.17
2023-04-01T03:11:33.416Z,8.05
2023-04-01T03:12:33.459Z,8.05
2023-04-01T03:13:33.484Z,8.11
2023-04-01T03:14:33.524Z,8.13
2023-04-01T03:15:33.824Z,8.14
2023-04-01T03:16:33.545Z,8.11
2023-04-01T03:17:33.618Z,8.17
2023-04-01T03:18:33.596Z,8.21
2023-04-01T03:19:33.607Z,8.24
2023-04-01T03:20:33.615Z,8.27
2023-04-01T03:21:33.628Z,8.32
2023-04-01T03:22:33.629Z,8.37
2023-04-01T03:23:33.659Z,8.40
2023-04-01T03:24:33.738Z,8.38
2023-04-01T03:25:33.903Z,8.37
2023-04-01T03:26:33.688Z,8.31
2023-04-01T03:27:33.725Z,8.33
2023-04-01T03:28:33.773Z,8.37
2023-04-01T03:29:33.849Z,8.40
2023-04-01T03:30:33.879Z,8.40
2023-04-01T03:31:33.967Z,8.41
2023-04-01T03:32:33.911Z,8.41
2023-04-01T03:33:33.900Z,8.42
2023-04-01T03:34:33.939Z,8.47
2023-04-01T03:35:34.214Z,8.53
2023-04-01T03:36:33.992Z,8.57
2023-04-01T03:37:33.964Z,8.61
2023-04-01T03:38:34.013Z,8.64
2023-04-01T03:39:34.072Z,8.68
2023-04-01T03:40:34.178Z,8.70
2023-04-01T03:41:34.211Z,8.70
2023-04-01T03:42:34.322Z,8.70
2023-04-01T03:43:34.331Z,8.66
2023-04-01T03:44:34.385Z,8.67
2023-04-01T03:45:34.535Z,8.66
2023-04-01T03:46:34.553Z,8.63
2023-04-01T03:47:34.567Z,8.43
2023-04-01T03:48:34.536Z,8.41
2023-04-01T03:49:34.621Z,8.36
2023-04-01T03:50:34.653Z,8.39
2023-04-01T03:51:34.702Z,8.46
2023-04-01T03:52:34.766Z,8.51
2023-04-01T03:53:34.827Z,8.47
2023-04-01T03:54:34.902Z,8.51
2023-04-01T03:55:35.151Z,8.55
2023-04-01T03:56:35.070Z,8.58
2023-04-01T03:57:35.131Z,8.62
2023-04-01T03:58:35.149Z,8.67
2023-04-01T03:59:35.225Z,8.67
2023-04-01T04:00:35.273Z,8.68
2023-04-01T04:01:35.315Z,8.70
2023-04-01T04:02:35.423Z,8.72
2023-04-01T04:03:35.569Z,8.72
2023-04-01T04:04:35.555Z,8.71
2023-04-01T04:05:35.771Z,8.69
2023-04-01T04:06:35.614Z,8.66
2023-04-01T04:07:35.680Z,8.65
2023-04-01T04:08:35.753Z,8.64
2023-04-01T04:09:35.826Z,8.62
2023-04-01T04:10:35.877Z,8.55
2023-04-01T04:11:35.960Z,8.56
2023-04-01T04:12:36.037Z,8.59
2023-04-01T04:13:36.078Z,8.63
2023-04-01T04:14:36.167Z,8.65
2023-04-01T04:15:36.221Z,8.67
2023-04-01T04:16:36.293Z,8.70
2023-04-01T04:17:36.382Z,8.72
2023-04-01T04:18:36.449Z,8.67
2023-04-01T04:19:36.517Z,8.60
2023-04-01T04:20:36.522Z,8.56
2023-04-01T04:21:36.620Z,8.55
2023-04-01T04:22:36.578Z,8.56
2023-04-01T04:23:36.605Z,8.60
2023-04-01T04:24:36.693Z,8.64
2023-04-01T04:25:36.712Z,8.67
2023-04-01T04:26:36.771Z,8.65
2023-04-01T04:27:36.851Z,8.67
2023-04-01T04:28:36.966Z,8.70
2023-04-01T04:29:37.041Z,8.75
2023-04-01T04:30:37.090Z,8.73
2023-04-01T04:31:37.183Z,8.74
2023-04-01T04:32:37.231Z,8.62
2023-04-01T04:33:37.313Z,8.61
2023-04-01T04:34:37.366Z,8.64
2023-04-01T04:35:37.446Z,8.69
2023-04-01T04:36:37.548Z,8.72
2023-04-01T04:37:37.567Z,8.77
2023-04-01T04:38:37.638Z,8.81
2023-04-01T04:39:37.695Z,8.84
2023-04-01T04:40:37.759Z,8.85
2023-04-01T04:41:37.846Z,8.87
2023-04-01T04:42:37.871Z,8.85
2023-04-01T04:43:37.931Z,8.86
2023-04-01T04:44:38.039Z,8.84
2023-04-01T04:45:38.102Z,8.84
2023-04-01T04:46:38.278Z,8.85
2023-04-01T04:47:38.279Z,8.83
2023-04-01T04:48:38.299Z,8.82
2023-04-01T04:49:38.389Z,8.84
2023-04-01T04:50:38.429Z,8.85
2023-04-01T04:51:38.491Z,8.77
2023-04-01T04:52:38.560Z,8.80
2023-04-01T04:53:38.598Z,8.84
2023-04-01T04:54:38.670Z,8.88
2023-04-01T04:55:38.718Z,8.91
2023-04-01T04:56:38.753Z,8.91
2023-04-01T04:57:38.815Z,8.92
2023-04-01T04:58:38.876Z,8.93
2023-04-01T04:59:38.964Z,8.94
2023-04-01T05:00:39.020Z,8.95
2023-04-01T05:01:39.083Z,8.92
2023-04-01T05:02:39.221Z,8.91
2023-04-01T05:03:39.156Z,8.92
2023-04-01T05:04:39.225Z,8.92
2023-04-01T05:05:39.252Z,8.93
2023-04-01T05:06:39.303Z,8.96
2023-04-01T05:07:39.363Z,8.98
2023-04-01T05:08:39.408Z,9.00
2023-04-01T05:09:39.528Z,9.00
2023-04-01T05:10:39.554Z,9.01
2023-04-01T05:11:39.611Z,9.02
2023-04-01T05:12:39.685Z,9.03
2023-04-01T05:13:39.745Z,9.06
2023-04-01T05:14:39.854Z,9.03
2023-04-01T05:15:39.900Z,8.98
2023-04-01T05:16:40.028Z,8.99
2023-04-01T05:17:40.065Z,8.98
2023-04-01T05:18:40.119Z,8.98
2023-04-01T05:19:40.176Z,8.98
2023-04-01T05:20:40.240Z,8.98
2023-04-01T05:21:40.318Z,8.98
2023-04-01T05:22:40.381Z,8.98
2023-04-01T05:23:40.454Z,9.00
2023-04-01T05:24:40.511Z,9.02
2023-04-01T05:25:40.597Z,8.96
2023-04-01T05:26:40.641Z,8.97
2023-04-01T05:27:40.705Z,8.99
2023-04-01T05:28:40.769Z,9.02
2023-04-01T05:29:40.850Z,9.05
2023-04-01T05:30:40.894Z,9.07
2023-04-01T05:31:40.942Z,9.05
2023-04-01T05:32:41.081Z,9.04
2023-04-01T05:33:41.071Z,9.06
2023-04-01T05:34:41.144Z,9.10
2023-04-01T05:35:41.235Z,9.13
2023-04-01T05:36:41.287Z,9.16
2023-04-01T05:37:41.360Z,9.19
2023-04-01T05:38:41.443Z,9.22
2023-04-01T05:39:41.529Z,9.20
2023-04-01T05:40:41.574Z,9.20
2023-04-01T05:41:41.619Z,9.17
2023-04-01T05:42:41.675Z,9.11
2023-04-01T05:43:41.719Z,9.12
2023-04-01T05:44:41.820Z,9.14
2023-04-01T05:45:41.845Z,9.19
2023-04-01T05:46:41.928Z,9.22
2023-04-01T05:47:42.049Z,9.22
2023-04-01T05:48:42.044Z,9.19
2023-04-01T05:49:42.109Z,9.17
2023-04-01T05:50:42.131Z,9.15
2023-04-01T05:51:42.182Z,9.15
2023-04-01T05:52:42.216Z,9.19
2023-04-01T05:53:42.262Z,9.24
2023-04-01T05:54:42.301Z,9.25
2023-04-01T05:55:42.357Z,9.29
2023-04-01T05:56:42.387Z,9.34
2023-04-01T05:57:42.429Z,9.36
2023-04-01T05:58:42.476Z,9.20
2023-04-01T05:59:42.553Z,9.08
2023-04-01T06:00:42.564Z,8.92
2023-04-01T06:01:42.639Z,8.89
2023-04-01T06:02:42.781Z,8.79
2023-04-01T06:03:43.096Z,8.76
2023-04-01T06:04:42.916Z,8.70
2023-04-01T06:05:42.948Z,8.66
2023-04-01T06:06:43.029Z,8.57
2023-04-01T06:07:43.147Z,8.55
2023-04-01T06:08:43.211Z,8.53
2023-04-01T06:09:43.282Z,8.51
2023-04-01T06:10:43.358Z,8.55
2023-04-01T06:11:43.441Z,8.56
2023-04-01T06:12:43.491Z,8.63
2023-04-01T06:13:43.523Z,8.72
2023-04-01T06:14:43.569Z,8.74
2023-04-01T06:15:43.586Z,8.81
2023-04-01T06:16:43.808Z,8.87
2023-04-01T06:17:45.587Z,8.93
2023-04-01T06:18:43.692Z,8.98
2023-04-01T06:19:43.694Z,9.00
2023-04-01T06:20:43.716Z,9.05
2023-04-01T06:21:43.772Z,9.10
2023-04-01T06:22:43.725Z,9.16
2023-04-01T06:23:43.741Z,9.18
2023-04-01T06:24:43.702Z,9.23
2023-04-01T06:25:43.706Z,9.27
2023-04-01T06:26:43.708Z,9.33
2023-04-01T06:27:43.705Z,9.37
2023-04-01T06:28:43.738Z,9.41
2023-04-01T06:29:43.755Z,9.46
2023-04-01T06:30:43.713Z,9.48
2023-04-01T06:31:43.747Z,9.53
2023-04-01T06:32:43.780Z,9.56
2023-04-01T06:33:43.715Z,9.60
2023-04-01T06:34:43.792Z,9.64
2023-04-01T06:35:43.929Z,9.67
2023-04-01T06:36:43.760Z,9.70
2023-04-01T06:37:43.747Z,9.70
2023-04-01T06:38:43.716Z,9.71
2023-04-01T06:39:43.742Z,9.76
2023-04-01T06:40:43.749Z,9.78
2023-04-01T06:41:43.709Z,9.78
2023-04-01T06:42:43.700Z,9.82
2023-04-01T06:43:43.693Z,9.83
2023-04-01T06:44:43.693Z,9.88
2023-04-01T06:45:43.705Z,9.91
2023-04-01T06:46:43.680Z,9.89
2023-04-01T06:47:45.422Z,9.92
2023-04-01T06:48:43.656Z,9.97
2023-04-01T06:49:43.785Z,10.00
2023-04-01T06:50:43.638Z,10.01
2023-04-01T06:51:43.634Z,10.02
2023-04-01T06:52:43.658Z,10.02
2023-04-01T06:53:43.632Z,10.05
2023-04-01T06:54:43.655Z,10.09
2023-04-01T06:55:43.627Z,10.12
2023-04-01T06:56:43.625Z,10.17
2023-04-01T06:57:43.619Z,10.13
2023-04-01T06:58:43.605Z,10.19
2023-04-01T06:59:43.634Z,10.19
2023-04-01T07:00:43.586Z,10.23
2023-04-01T07:01:43.682Z,10.22
2023-04-01T07:02:43.611Z,10.28
2023-04-01T07:03:43.568Z,10.27
2023-04-01T07:04:43.584Z,10.26
2023-04-01T07:05:43.560Z,10.28
2023-04-01T07:06:43.560Z,10.24
2023-04-01T07:07:43.550Z,10.25
2023-04-01T07:08:43.580Z,10.31
2023-04-01T07:09:43.552Z,10.34
2023-04-01T07:10:43.522Z,10.38
2023-04-01T07:11:43.502Z,10.44
2023-04-01T07:12:43.489Z,10.48
2023-04-01T07:13:43.473Z,10.54
2023-04-01T07:14:43.456Z,10.47
2023-04-01T07:15:43.436Z,10.51
2023-04-01T07:16:43.472Z,10.54
2023-04-01T07:17:43.481Z,10.56
2023-04-01T07:18:43.377Z,10.67
2023-04-01T07:19:43.361Z,10.67
2023-04-01T07:20:43.353Z,10.69
2023-04-01T07:21:43.273Z,10.72
2023-04-01T07:22:43.343Z,10.79
2023-04-01T07:23:43.221Z,10.90
2023-04-01T07:24:43.245Z,10.98
2023-04-01T07:25:43.165Z,11.05
2023-04-01T07:26:43.134Z,11.13
2023-04-01T07:27:43.107Z,11.14
2023-04-01T07:28:43.086Z,11.06
2023-04-01T07:29:43.089Z,11.11
2023-04-01T07:30:43.146Z,11.12
2023-04-01T07:31:43.088Z,11.20
2023-04-01T07:32:43.132Z,11.25
2023-04-01T07:33:43.083Z,11.32
2023-04-01T07:34:43.092Z,11.35
2023-04-01T07:35:43.140Z,11.39
2023-04-01T07:36:43.089Z,11.45
2023-04-01T07:37:43.083Z,11.42
2023-04-01T07:38:43.210Z,11.36
2023-04-01T07:39:43.182Z,11.41
2023-04-01T07:40:43.193Z,11.39
2023-04-01T07:41:43.213Z,11.39
2023-04-01T07:42:43.245Z,11.40
2023-04-01T07:43:43.296Z,11.36
2023-04-01T07:44:43.363Z,11.41
2023-04-01T07:45:43.379Z,11.28
2023-04-01T07:46:43.582Z,11.25
2023-04-01T07:47:43.506Z,11.32
2023-04-01T07:48:43.488Z,11.42
2023-04-01T07:49:43.474Z,11.52
2023-04-01T07:50:43.499Z,11.63
2023-04-01T07:51:43.524Z,11.74
2023-04-01T07:52:43.520Z,11.75
2023-04-01T07:53:43.554Z,11.84
2023-04-01T07:54:43.594Z,11.93
2023-04-01T07:55:43.624Z,12.00
2023-04-01T07:56:43.757Z,12.09
2023-04-01T07:57:43.674Z,12.11
2023-04-01T07:58:43.713Z,11.93
2023-04-01T07:59:43.730Z,12.04
2023-04-01T08:00:43.696Z,12.06
2023-04-01T08:01:43.717Z,12.03
2023-04-01T08:02:43.940Z,12.09
2023-04-01T08:03:43.940Z,12.04
2023-04-01T08:04:43.893Z,11.93
2023-04-01T08:05:44.599Z,12.01
2023-04-01T08:06:43.745Z,12.10
2023-04-01T08:07:43.688Z,12.14
2023-04-01T08:08:43.660Z,12.01
2023-04-01T08:09:43.643Z,12.11
2023-04-01T08:10:43.617Z,12.22
2023-04-01T08:11:43.889Z,12.29
2023-04-01T08:12:43.593Z,12.40
2023-04-01T08:13:43.532Z,12.49
2023-04-01T08:14:43.489Z,12.59
2023-04-01T08:15:43.461Z,12.59
2023-04-01T08:16:43.501Z,12.64
2023-04-01T08:17:43.377Z,12.66
2023-04-01T08:18:43.316Z,12.36
2023-04-01T08:19:43.295Z,12.41
2023-04-01T08:20:43.235Z,12.48
2023-04-01T08:21:43.993Z,12.30
2023-04-01T08:22:43.180Z,12.41
2023-04-01T08:23:43.128Z,12.40
2023-04-01T08:24:47.738Z,12.56
2023-04-01T08:25:43.043Z,12.64
2023-04-01T08:26:42.999Z,12.69
2023-04-01T08:27:42.977Z,12.74
2023-04-01T08:28:42.969Z,12.75
2023-04-01T08:29:42.934Z,12.74
2023-04-01T08:30:42.853Z,12.66
2023-04-01T08:31:42.810Z,12.69
2023-04-01T08:32:42.785Z,12.78
2023-04-01T08:33:42.712Z,12.76
2023-04-01T08:34:42.701Z,12.79
2023-04-01T08:35:42.855Z,12.90
2023-04-01T08:36:42.621Z,12.91
2023-04-01T08:37:42.566Z,12.96
2023-04-01T08:38:42.527Z,12.89
2023-04-01T08:39:42.524Z,12.86
2023-04-01T08:40:42.479Z,12.92
2023-04-01T08:41:42.443Z,12.97
2023-04-01T08:42:42.392Z,13.00
2023-04-01T08:43:42.350Z,13.02
2023-04-01T08:44:42.351Z,12.98
2023-04-01T08:45:42.340Z,12.83
2023-04-01T08:46:42.264Z,12.78
2023-04-01T08:47:42.251Z,12.84
2023-04-01T08:48:42.200Z,12.86
2023-04-01T08:49:42.161Z,12.88
2023-04-01T08:50:42.136Z,12.97
2023-04-01T08:51:42.125Z,13.02
2023-04-01T08:52:42.098Z,12.94
2023-04-01T08:53:42.066Z,12.92
2023-04-01T08:54:42.058Z,13.00
2023-04-01T08:55:41.999Z,13.05
2023-04-01T08:56:41.984Z,13.08
2023-04-01T08:57:41.936Z,13.08
2023-04-01T08:58:41.897Z,13.07
2023-04-01T08:59:41.852Z,13.07
2023-04-01T09:00:41.834Z,13.08
2023-04-01T09:01:41.762Z,13.07
2023-04-01T09:02:41.818Z,12.97
2023-04-01T09:03:41.778Z,12.95
2023-04-01T09:04:41.612Z,12.89
2023-04-01T09:05:41.552Z,12.87
2023-04-01T09:06:41.510Z,12.91
2023-04-01T09:07:41.503Z,12.94
2023-04-01T09:08:41.539Z,13.01
2023-04-01T09:09:41.556Z,13.16
2023-04-01T09:10:41.556Z,13.23
2023-04-01T09:11:41.598Z,13.25
2023-04-01T09:12:41.584Z,13.31
2023-04-01T09:13:41.607Z,13.30
2023-04-01T09:14:41.662Z,13.35
2023-04-01T09:15:41.660Z,13.40
2023-04-01T09:16:41.662Z,13.49
2023-04-01T09:17:41.651Z,13.61
2023-04-01T09:18:41.602Z,13.67
2023-04-01T09:19:41.601Z,13.70
2023-04-01T09:20:41.599Z,13.70
2023-04-01T09:21:41.629Z,13.75
2023-04-01T09:22:41.632Z,13.87
2023-04-01T09:23:41.655Z,13.94
2023-04-01T09:24:41.675Z,14.02
2023-04-01T09:25:41.620Z,14.07
2023-04-01T09:26:41.576Z,14.04
2023-04-01T09:27:41.560Z,14.19
2023-04-01T09:28:41.571Z,14.28
2023-04-01T09:29:41.601Z,14.39
2023-04-01T09:30:41.588Z,14.49
2023-04-01T09:31:41.597Z,14.45
2023-04-01T09:32:42.113Z,14.45
2023-04-01T09:33:41.498Z,14.49
2023-04-01T09:34:41.472Z,14.61
2023-04-01T09:35:41.370Z,14.63
2023-04-01T09:36:41.311Z,14.58
2023-04-01T09:37:41.256Z,14.65
2023-04-01T09:38:41.190Z,14.72
2023-04-01T09:39:41.162Z,14.74
2023-04-01T09:40:41.116Z,14.83
2023-04-01T09:41:41.084Z,14.96
2023-04-01T09:42:41.090Z,15.08
2023-04-01T09:43:41.087Z,15.14
2023-04-01T09:44:42.794Z,15.16
2023-04-01T09:45:40.998Z,15.02
2023-04-01T09:46:41.018Z,15.14
2023-04-01T09:47:40.946Z,15.25
2023-04-01T09:48:40.809Z,15.31
2023-04-01T09:49:40.738Z,15.30
2023-04-01T09:50:40.635Z,15.40
2023-04-01T09:51:40.585Z,15.46
2023-04-01T09:52:40.505Z,15.52
2023-04-01T09:53:40.428Z,15.63
2023-04-01T09:54:40.415Z,15.65
2023-04-01T09:55:40.296Z,15.76
2023-04-01T09:56:40.232Z,15.88
2023-04-01T09:57:40.152Z,15.98
2023-04-01T09:58:43.392Z,16.07
2023-04-01T09:59:40.015Z,16.13
2023-04-01T10:00:39.946Z,16.12
2023-04-01T10:01:39.934Z,16.15
2023-04-01T10:02:39.832Z,16.24
2023-04-01T10:03:39.737Z,16.28
2023-04-01T10:04:39.723Z,16.33
2023-04-01T10:05:39.621Z,16.35
2023-04-01T10:06:39.509Z,16.16
2023-04-01T10:07:39.491Z,16.19
2023-04-01T10:08:39.476Z,16.26
2023-04-01T10:09:39.445Z,16.26
2023-04-01T10:10:39.418Z,16.10
2023-04-01T10:11:39.397Z,16.29
2023-04-01T10:12:39.359Z,16.39
2023-04-01T10:13:39.339Z,16.50
2023-04-01T10:14:39.268Z,16.63
2023-04-01T10:15:39.214Z,16.70
2023-04-01T10:16:39.292Z,16.72
2023-04-01T10:17:39.227Z,16.78
2023-04-01T10:18:39.087Z,16.72
2023-04-01T10:19:39.342Z,16.59
2023-04-01T10:20:38.989Z,16.68
2023-04-01T10:21:38.925Z,16.77
2023-04-01T10:22:38.869Z,16.86
2023-04-01T10:23:38.818Z,16.87
2023-04-01T10:24:38.762Z,17.01
2023-04-01T10:25:38.697Z,17.10
2023-04-01T10:26:38.620Z,17.20
2023-04-01T10:27:38.532Z,17.26
2023-04-01T10:28:38.478Z,17.28
2023-04-01T10:29:38.446Z,17.29
2023-04-01T10:30:38.423Z,17.35
2023-04-01T10:31:38.393Z,17.33
2023-04-01T10:32:38.311Z,17.34
2023-04-01T10:33:38.195Z,17.36
2023-04-01T10:34:38.122Z,17.39
2023-04-01T10:35:38.077Z,17.30
2023-04-01T10:36:38.026Z,17.16
2023-04-01T10:37:37.935Z,17.28
2023-04-01T10:38:37.932Z,17.39
2023-04-01T10:39:37.877Z,17.39
2023-04-01T10:40:37.842Z,17.39
2023-04-01T10:41:37.806Z,17.53
2023-04-01T10:42:37.764Z,17.62
2023-04-01T10:43:37.692Z,17.54
2023-04-01T10:44:37.610Z,17.56
2023-04-01T10:45:37.641Z,17.68
2023-04-01T10:46:37.622Z,17.82
2023-04-01T10:47:37.545Z,17.78
2023-04-01T10:48:37.504Z,17.78
2023-04-01T10:49:37.464Z,17.84
2023-04-01T10:50:37.446Z,17.83
2023-04-01T10:51:37.407Z,17.86
2023-04-01T10:52:37.399Z,17.88
2023-04-01T10:53:37.289Z,17.82
2023-04-01T10:54:37.204Z,17.74
2023-04-01T10:55:37.135Z,17.74
2023-04-01T10:56:37.051Z,17.67
2023-04-01T10:57:37.026Z,17.74
2023-04-01T10:58:36.920Z,17.66
2023-04-01T10:59:36.802Z,17.65
2023-04-01T11:00:36.719Z,17.65
2023-04-01T11:01:36.654Z,17.48
2023-04-01T11:02:36.689Z,17.49
2023-04-01T11:03:36.686Z,17.39
2023-04-01T11:04:36.513Z,17.53
2023-04-01T11:05:36.618Z,17.66
2023-04-01T11:06:36.449Z,17.76
2023-04-01T11:07:36.401Z,17.75
2023-04-01T11:08:36.393Z,17.85
2023-04-01T11:09:36.357Z,17.90
2023-04-01T11:10:36.317Z,17.84
2023-04-01T11:11:36.301Z,17.85
2023-04-01T11:12:36.242Z,17.89
2023-04-01T11:13:36.173Z,17.94
2023-04-01T11:14:36.110Z,17.93
2023-04-01T11:15:36.410Z,17.91
2023-04-01T11:16:36.263Z,17.68
2023-04-01T11:17:35.919Z,17.76
2023-04-01T11:18:35.832Z,17.70
2023-04-01T11:19:35.751Z,17.79
2023-04-01T11:20:35.705Z,17.90
2023-04-01T11:21:35.644Z,17.96
2023-04-01T11:22:35.567Z,18.03
2023-04-01T11:23:35.525Z,18.07
2023-04-01T11:24:35.481Z,18.20
2023-04-01T11:25:35.407Z,18.24
2023-04-01T11:26:35.359Z,18.17
2023-04-01T11:27:35.275Z,18.18
2023-04-01T11:28:35.184Z,18.20
2023-04-01T11:29:35.108Z,18.27
2023-04-01T11:30:35.061Z,18.35
2023-04-01T11:31:35.067Z,18.28
2023-04-01T11:32:35.024Z,18.21
2023-04-01T11:33:34.914Z,18.17
2023-04-01T11:34:34.850Z,18.24
2023-04-01T11:35:35.231Z,18.28
2023-04-01T11:36:34.780Z,18.37
2023-04-01T11:37:34.706Z,18.32
2023-04-01T11:38:34.678Z,18.36
2023-04-01T11:39:34.638Z,18.25
2023-04-01T11:40:34.625Z,18.36
2023-04-01T11:41:34.563Z,18.41
2023-04-01T11:42:34.488Z,18.46
2023-04-01T11:43:34.465Z,18.36
2023-04-01T11:44:34.359Z,18.40
2023-04-01T11:45:34.496Z,18.44
2023-04-01T11:46:34.265Z,18.43
2023-04-01T11:47:34.219Z,18.41
2023-04-01T11:48:34.144Z,18.46
2023-04-01T11:49:34.125Z,18.47
2023-04-01T11:50:34.089Z,18.47
2023-04-01T11:51:34.034Z,18.46
2023-04-01T11:52:33.993Z,18.49
2023-04-01T11:53:33.944Z,18.51
2023-04-01T11:54:33.902Z,18.50
2023-04-01T11:55:34.148Z,18.53
2023-04-01T11:56:33.817Z,18.56
2023-04-01T11:57:33.866Z,18.52
2023-04-01T11:58:33.663Z,18.46
2023-04-01T11:59:33.564Z,18.51
2023-04-01T12:00:33.469Z,18.47
2023-04-01T12:01:33.378Z,18.53
2023-04-01T12:02:33.345Z,18.59
2023-04-01T12:03:33.419Z,18.67
2023-04-01T12:04:34.156Z,18.74
2023-04-01T12:05:33.140Z,18.77
2023-04-01T12:06:32.897Z,18.76
2023-04-01T12:07:32.795Z,18.75
2023-04-01T12:08:32.720Z,18.76
2023-04-01T12:09:32.605Z,18.77
2023-04-01T12:10:32.516Z,18.83
2023-04-01T12:11:32.411Z,18.90
2023-04-01T12:12:32.329Z,18.90
2023-04-01T12:13:32.237Z,18.88
2023-04-01T12:14:32.110Z,18.83
2023-04-01T12:15:32.182Z,18.93
2023-04-01T12:16:31.973Z,19.00
2023-04-01T12:17:31.844Z,19.07
2023-04-01T12:18:31.715Z,18.95
2023-04-01T12:19:31.669Z,18.79
2023-04-01T12:20:31.601Z,18.64
2023-04-01T12:21:31.554Z,18.80
2023-04-01T12:22:33.797Z,18.89
2023-04-01T12:23:31.385Z,18.99
2023-04-01T12:24:31.277Z,18.93
2023-04-01T12:25:31.484Z,19.00
2023-04-01T12:26:31.033Z,19.07
2023-04-01T12:27:30.907Z,19.12
2023-04-01T12:28:30.809Z,19.21
2023-04-01T12:29:30.669Z,19.27
2023-04-01T12:30:30.562Z,19.32
2023-04-01T12:31:30.451Z,19.38
2023-04-01T12:32:30.333Z,19.43
2023-04-01T12:33:30.206Z,19.48
2023-04-01T12:34:30.093Z,19.47
2023-04-01T12:35:30.020Z,18.87
2023-04-01T12:36:29.847Z,18.50
2023-04-01T12:37:29.726Z,18.24
2023-04-01T12:38:29.614Z,18.00
2023-04-01T12:39:29.505Z,18.16
2023-04-01T12:40:29.652Z,18.26
2023-04-01T12:41:29.341Z,18.14
2023-04-01T12:42:29.280Z,18.28
2023-04-01T12:43:29.241Z,18.37
2023-04-01T12:44:29.212Z,18.07
2023-04-01T12:45:29.140Z,18.21
2023-04-01T12:46:29.218Z,18.00
2023-04-01T12:47:29.040Z,17.74
2023-04-01T12:48:28.943Z,17.73
2023-04-01T12:49:28.910Z,17.74
2023-04-01T12:50:28.939Z,17.73
2023-04-01T12:51:28.849Z,17.25
2023-04-01T12:52:28.737Z,16.91
2023-04-01T12:53:28.671Z,16.59
2023-04-01T12:54:28.619Z,16.29
2023-04-01T12:55:28.601Z,16.45
2023-04-01T12:56:28.557Z,16.61
2023-04-01T12:57:28.653Z,16.55
2023-04-01T12:58:28.539Z,16.49
2023-04-01T12:59:28.539Z,16.52
2023-04-01T13:00:28.554Z,16.28
2023-04-01T13:01:28.600Z,16.44
2023-04-01T13:02:28.527Z,16.50
2023-04-01T13:03:28.518Z,16.45
2023-04-01T13:04:28.453Z,16.54
2023-04-01T13:05:28.446Z,16.44